sensor_id;sensor_type;location;lat;lon;timestamp;P1;durP1;ratioP1;P2;durP2;ratioP2
37997;SDS011;24079;51.824;4.682;2022-11-18T00:00:51;6.32;;;2.20;;
37997;SDS011;24079;51.824;4.682;2022-11-18T00:03:17;4.22;;;2.20;;
37997;SDS011;24079;51.824;4.682;2022-11-18T00:05:51;3.45;;;2.10;;
37997;SDS011;24079;51.824;4.682;2022-11-18T00:08:18;3.88;;;2.20;;
37997;SDS011;24079;51.824;4.682;2022-11-18T00:10:43;7.40;;;2.50;;
37997;SDS011;24079;51.824;4.682;2022-11-18T00:13:12;5.60;;;2.30;;
37997;SDS011;24079;51.824;4.682;2022-11-18T00:16:00;7.25;;;2.72;;
37997;SDS011;24079;51.824;4.682;2022-11-18T00:18:26;5.68;;;2.22;;
37997;SDS011;24079;51.824;4.682;2022-11-18T00:20:52;5.55;;;2.58;;
37997;SDS011;24079;51.824;4.682;2022-11-18T00:23:17;7.63;;;2.95;;
37997;SDS011;24079;51.824;4.682;2022-11-18T00:25:43;9.35;;;3.10;;
37997;SDS011;24079;51.824;4.682;2022-11-18T00:28:08;8.40;;;2.72;;
37997;SDS011;24079;51.824;4.682;2022-11-18T00:30:34;8.95;;;2.95;;
37997;SDS011;24079;51.824;4.682;2022-11-18T00:32:59;9.10;;;2.50;;
37997;SDS011;24079;51.824;4.682;2022-11-18T00:35:25;4.40;;;2.72;;
37997;SDS011;24079;51.824;4.682;2022-11-18T00:37:50;7.32;;;2.72;;
37997;SDS011;24079;51.824;4.682;2022-11-18T00:40:16;6.10;;;2.70;;
37997;SDS011;24079;51.824;4.682;2022-11-18T00:42:42;7.93;;;3.00;;
37997;SDS011;24079;51.824;4.682;2022-11-18T00:45:19;6.13;;;2.80;;
37997;SDS011;24079;51.824;4.682;2022-11-18T00:47:46;7.05;;;2.75;;
37997;SDS011;24079;51.824;4.682;2022-11-18T00:50:11;5.32;;;2.72;;
37997;SDS011;24079;51.824;4.682;2022-11-18T00:52:37;10.02;;;2.90;;
37997;SDS011;24079;51.824;4.682;2022-11-18T00:55:03;6.88;;;2.88;;
37997;SDS011;24079;51.824;4.682;2022-11-18T00:57:29;5.65;;;2.60;;
37997;SDS011;24079;51.824;4.682;2022-11-18T00:59:54;9.13;;;3.38;;
37997;SDS011;24079;51.824;4.682;2022-11-18T01:02:20;7.15;;;3.10;;
37997;SDS011;24079;51.824;4.682;2022-11-18T01:04:45;8.07;;;3.22;;
37997;SDS011;24079;51.824;4.682;2022-11-18T01:07:11;6.45;;;2.70;;
37997;SDS011;24079;51.824;4.682;2022-11-18T01:09:37;7.72;;;3.00;;
37997;SDS011;24079;51.824;4.682;2022-11-18T01:12:02;8.13;;;2.92;;
37997;SDS011;24079;51.824;4.682;2022-11-18T01:14:47;7.65;;;3.20;;
37997;SDS011;24079;51.824;4.682;2022-11-18T01:17:12;8.93;;;3.30;;
37997;SDS011;24079;51.824;4.682;2022-11-18T01:19:38;7.95;;;3.67;;
37997;SDS011;24079;51.824;4.682;2022-11-18T01:22:04;10.90;;;3.42;;
37997;SDS011;24079;51.824;4.682;2022-11-18T01:24:30;6.90;;;3.63;;
37997;SDS011;24079;51.824;4.682;2022-11-18T01:26:57;7.53;;;3.42;;
37997;SDS011;24079;51.824;4.682;2022-11-18T01:29:23;8.13;;;3.45;;
37997;SDS011;24079;51.824;4.682;2022-11-18T01:31:49;9.73;;;3.42;;
37997;SDS011;24079;51.824;4.682;2022-11-18T01:34:14;8.05;;;3.47;;
37997;SDS011;24079;51.824;4.682;2022-11-18T01:36:40;10.02;;;3.95;;
37997;SDS011;24079;51.824;4.682;2022-11-18T01:39:05;11.25;;;4.03;;
37997;SDS011;24079;51.824;4.682;2022-11-18T01:41:31;8.45;;;3.72;;
37997;SDS011;24079;51.824;4.682;2022-11-18T01:43:59;8.93;;;4.22;;
37997;SDS011;24079;51.824;4.682;2022-11-18T01:46:25;9.02;;;4.38;;
37997;SDS011;24079;51.824;4.682;2022-11-18T01:49:03;15.25;;;4.53;;
37997;SDS011;24079;51.824;4.682;2022-11-18T01:51:42;11.20;;;4.38;;
37997;SDS011;24079;51.824;4.682;2022-11-18T01:54:15;9.10;;;3.85;;
37997;SDS011;24079;51.824;4.682;2022-11-18T01:56:46;7.75;;;4.18;;
37997;SDS011;24079;51.824;4.682;2022-11-18T01:59:26;9.70;;;4.80;;
37997;SDS011;24079;51.824;4.682;2022-11-18T02:01:55;11.82;;;4.43;;
37997;SDS011;24079;51.824;4.682;2022-11-18T02:04:21;9.75;;;4.57;;
37997;SDS011;24079;51.824;4.682;2022-11-18T02:06:47;9.23;;;4.53;;
37997;SDS011;24079;51.824;4.682;2022-11-18T02:09:13;10.27;;;4.43;;
37997;SDS011;24079;51.824;4.682;2022-11-18T02:11:40;7.28;;;4.32;;
37997;SDS011;24079;51.824;4.682;2022-11-18T02:14:15;9.93;;;4.22;;
37997;SDS011;24079;51.824;4.682;2022-11-18T02:33:48;10.13;;;4.78;;
37997;SDS011;24079;51.824;4.682;2022-11-18T02:36:27;8.63;;;5.07;;
37997;SDS011;24079;51.824;4.682;2022-11-18T02:39:14;11.00;;;4.57;;
37997;SDS011;24079;51.824;4.682;2022-11-18T02:41:43;9.75;;;4.60;;
37997;SDS011;24079;51.824;4.682;2022-11-18T02:44:15;10.70;;;4.93;;
37997;SDS011;24079;51.824;4.682;2022-11-18T02:46:44;11.07;;;4.93;;
37997;SDS011;24079;51.824;4.682;2022-11-18T02:49:21;13.35;;;5.72;;
37997;SDS011;24079;51.824;4.682;2022-11-18T02:51:51;12.02;;;5.38;;
37997;SDS011;24079;51.824;4.682;2022-11-18T02:54:19;12.48;;;5.60;;
37997;SDS011;24079;51.824;4.682;2022-11-18T02:56:47;12.43;;;5.47;;
37997;SDS011;24079;51.824;4.682;2022-11-18T02:59:18;14.05;;;6.13;;
37997;SDS011;24079;51.824;4.682;2022-11-18T03:01:44;15.35;;;5.78;;
37997;SDS011;24079;51.824;4.682;2022-11-18T03:04:10;11.45;;;5.10;;
37997;SDS011;24079;51.824;4.682;2022-11-18T03:06:41;13.80;;;5.55;;
37997;SDS011;24079;51.824;4.682;2022-11-18T03:09:31;11.57;;;5.67;;
37997;SDS011;24079;51.824;4.682;2022-11-18T03:15:05;11.73;;;5.95;;
37997;SDS011;24079;51.824;4.682;2022-11-18T03:20:14;13.32;;;6.35;;
37997;SDS011;24079;51.824;4.682;2022-11-18T03:25:46;13.27;;;5.88;;
37997;SDS011;24079;51.824;4.682;2022-11-18T03:28:30;13.95;;;6.47;;
37997;SDS011;24079;51.824;4.682;2022-11-18T03:31:01;11.70;;;6.15;;
37997;SDS011;24079;51.824;4.682;2022-11-18T03:33:29;11.80;;;6.28;;
37997;SDS011;24079;51.824;4.682;2022-11-18T03:35:59;13.55;;;6.50;;
37997;SDS011;24079;51.824;4.682;2022-11-18T03:38:28;13.68;;;6.20;;
37997;SDS011;24079;51.824;4.682;2022-11-18T03:40:58;14.75;;;7.07;;
37997;SDS011;24079;51.824;4.682;2022-11-18T03:43:29;14.35;;;6.80;;
37997;SDS011;24079;51.824;4.682;2022-11-18T03:46:07;16.05;;;7.93;;
37997;SDS011;24079;51.824;4.682;2022-11-18T03:48:43;12.52;;;6.90;;
37997;SDS011;24079;51.824;4.682;2022-11-18T03:51:22;18.05;;;7.50;;
37997;SDS011;24079;51.824;4.682;2022-11-18T03:54:02;10.25;;;6.28;;
37997;SDS011;24079;51.824;4.682;2022-11-18T03:56:35;14.82;;;6.85;;
37997;SDS011;24079;51.824;4.682;2022-11-18T04:04:44;15.82;;;7.10;;
37997;SDS011;24079;51.824;4.682;2022-11-18T04:10:10;11.70;;;6.28;;
37997;SDS011;24079;51.824;4.682;2022-11-18T04:15:10;15.80;;;6.20;;
37997;SDS011;24079;51.824;4.682;2022-11-18T04:17:36;17.55;;;6.97;;
37997;SDS011;24079;51.824;4.682;2022-11-18T04:20:05;14.55;;;6.30;;
37997;SDS011;24079;51.824;4.682;2022-11-18T04:22:33;15.32;;;6.15;;
37997;SDS011;24079;51.824;4.682;2022-11-18T04:24:59;11.68;;;6.20;;
37997;SDS011;24079;51.824;4.682;2022-11-18T04:27:24;14.85;;;6.28;;
37997;SDS011;24079;51.824;4.682;2022-11-18T04:29:50;15.30;;;6.38;;
37997;SDS011;24079;51.824;4.682;2022-11-18T04:32:15;15.15;;;6.35;;
37997;SDS011;24079;51.824;4.682;2022-11-18T04:34:41;16.02;;;6.65;;
37997;SDS011;24079;51.824;4.682;2022-11-18T04:37:06;20.73;;;6.75;;
37997;SDS011;24079;51.824;4.682;2022-11-18T04:39:32;18.27;;;6.25;;
37997;SDS011;24079;51.824;4.682;2022-11-18T04:41:57;15.82;;;6.90;;
37997;SDS011;24079;51.824;4.682;2022-11-18T04:44:27;10.38;;;5.40;;
37997;SDS011;24079;51.824;4.682;2022-11-18T04:46:54;12.27;;;5.88;;
37997;SDS011;24079;51.824;4.682;2022-11-18T04:49:21;14.45;;;6.53;;
37997;SDS011;24079;51.824;4.682;2022-11-18T04:51:48;12.85;;;6.18;;
37997;SDS011;24079;51.824;4.682;2022-11-18T04:54:14;13.65;;;5.45;;
37997;SDS011;24079;51.824;4.682;2022-11-18T04:56:40;13.75;;;5.07;;
37997;SDS011;24079;51.824;4.682;2022-11-18T04:59:06;13.15;;;5.63;;
37997;SDS011;24079;51.824;4.682;2022-11-18T05:01:32;13.88;;;5.13;;
37997;SDS011;24079;51.824;4.682;2022-11-18T05:03:59;16.17;;;6.35;;
37997;SDS011;24079;51.824;4.682;2022-11-18T05:06:26;14.73;;;6.03;;
37997;SDS011;24079;51.824;4.682;2022-11-18T05:08:53;13.02;;;4.88;;
37997;SDS011;24079;51.824;4.682;2022-11-18T05:11:18;15.32;;;5.53;;
37997;SDS011;24079;51.824;4.682;2022-11-18T05:14:02;11.95;;;4.72;;
37997;SDS011;24079;51.824;4.682;2022-11-18T05:16:28;16.45;;;6.00;;
37997;SDS011;24079;51.824;4.682;2022-11-18T05:18:54;11.48;;;4.80;;
37997;SDS011;24079;51.824;4.682;2022-11-18T05:21:19;11.77;;;4.63;;
37997;SDS011;24079;51.824;4.682;2022-11-18T05:23:45;12.13;;;5.05;;
37997;SDS011;24079;51.824;4.682;2022-11-18T05:26:10;13.80;;;5.22;;
37997;SDS011;24079;51.824;4.682;2022-11-18T05:28:36;13.10;;;5.63;;
37997;SDS011;24079;51.824;4.682;2022-11-18T05:31:09;12.77;;;4.28;;
37997;SDS011;24079;51.824;4.682;2022-11-18T05:33:36;12.75;;;4.93;;
37997;SDS011;24079;51.824;4.682;2022-11-18T05:36:06;16.70;;;5.00;;
37997;SDS011;24079;51.824;4.682;2022-11-18T05:38:36;14.98;;;4.88;;
37997;SDS011;24079;51.824;4.682;2022-11-18T05:41:02;13.90;;;5.35;;
37997;SDS011;24079;51.824;4.682;2022-11-18T05:43:29;11.35;;;4.32;;
37997;SDS011;24079;51.824;4.682;2022-11-18T05:45:55;11.65;;;4.72;;
37997;SDS011;24079;51.824;4.682;2022-11-18T05:48:21;15.05;;;4.53;;
37997;SDS011;24079;51.824;4.682;2022-11-18T05:50:48;13.23;;;4.78;;
37997;SDS011;24079;51.824;4.682;2022-11-18T05:53:15;14.65;;;5.03;;
37997;SDS011;24079;51.824;4.682;2022-11-18T05:58:39;10.55;;;4.32;;
37997;SDS011;24079;51.824;4.682;2022-11-18T06:01:05;13.60;;;5.30;;
37997;SDS011;24079;51.824;4.682;2022-11-18T06:03:33;9.57;;;4.25;;
37997;SDS011;24079;51.824;4.682;2022-11-18T06:06:02;9.80;;;5.05;;
37997;SDS011;24079;51.824;4.682;2022-11-18T06:08:31;8.90;;;4.70;;
37997;SDS011;24079;51.824;4.682;2022-11-18T06:11:00;9.95;;;4.22;;
37997;SDS011;24079;51.824;4.682;2022-11-18T06:13:27;12.40;;;5.25;;
37997;SDS011;24079;51.824;4.682;2022-11-18T06:15:59;11.05;;;5.65;;
37997;SDS011;24079;51.824;4.682;2022-11-18T06:18:29;7.25;;;4.75;;
37997;SDS011;24079;51.824;4.682;2022-11-18T06:20:59;9.80;;;4.53;;
37997;SDS011;24079;51.824;4.682;2022-11-18T06:23:27;14.98;;;5.00;;
37997;SDS011;24079;51.824;4.682;2022-11-18T06:25:57;14.95;;;5.10;;
37997;SDS011;24079;51.824;4.682;2022-11-18T06:28:23;9.68;;;4.70;;
37997;SDS011;24079;51.824;4.682;2022-11-18T06:30:50;13.18;;;5.43;;
37997;SDS011;24079;51.824;4.682;2022-11-18T06:33:16;10.77;;;5.13;;
37997;SDS011;24079;51.824;4.682;2022-11-18T06:35:42;8.85;;;5.13;;
37997;SDS011;24079;51.824;4.682;2022-11-18T06:38:07;14.10;;;5.55;;
37997;SDS011;24079;51.824;4.682;2022-11-18T06:40:33;20.80;;;6.50;;
37997;SDS011;24079;51.824;4.682;2022-11-18T06:43:04;11.68;;;5.25;;
37997;SDS011;24079;51.824;4.682;2022-11-18T06:45:51;15.07;;;5.50;;
37997;SDS011;24079;51.824;4.682;2022-11-18T06:48:36;14.13;;;5.63;;
37997;SDS011;24079;51.824;4.682;2022-11-18T06:51:05;19.52;;;6.30;;
37997;SDS011;24079;51.824;4.682;2022-11-18T06:53:32;12.93;;;5.30;;
37997;SDS011;24079;51.824;4.682;2022-11-18T06:56:01;13.77;;;5.78;;
37997;SDS011;24079;51.824;4.682;2022-11-18T06:58:28;15.18;;;5.65;;
37997;SDS011;24079;51.824;4.682;2022-11-18T07:00:53;14.35;;;5.25;;
37997;SDS011;24079;51.824;4.682;2022-11-18T07:03:19;12.93;;;4.95;;
37997;SDS011;24079;51.824;4.682;2022-11-18T07:05:44;21.92;;;5.32;;
37997;SDS011;24079;51.824;4.682;2022-11-18T07:08:10;11.80;;;5.60;;
37997;SDS011;24079;51.824;4.682;2022-11-18T07:10:35;20.58;;;6.45;;
37997;SDS011;24079;51.824;4.682;2022-11-18T07:13:01;11.65;;;5.00;;
37997;SDS011;24079;51.824;4.682;2022-11-18T07:15:26;13.20;;;5.20;;
37997;SDS011;24079;51.824;4.682;2022-11-18T07:17:52;11.60;;;5.30;;
37997;SDS011;24079;51.824;4.682;2022-11-18T07:20:17;12.95;;;5.18;;
37997;SDS011;24079;51.824;4.682;2022-11-18T07:22:43;14.55;;;5.72;;
37997;SDS011;24079;51.824;4.682;2022-11-18T07:25:09;19.90;;;6.20;;
37997;SDS011;24079;51.824;4.682;2022-11-18T07:27:34;15.25;;;5.03;;
37997;SDS011;24079;51.824;4.682;2022-11-18T07:30:00;15.82;;;5.30;;
37997;SDS011;24079;51.824;4.682;2022-11-18T07:32:25;13.43;;;6.20;;
37997;SDS011;24079;51.824;4.682;2022-11-18T07:34:51;14.15;;;5.57;;
37997;SDS011;24079;51.824;4.682;2022-11-18T07:37:16;25.63;;;12.35;;
37997;SDS011;24079;51.824;4.682;2022-11-18T07:39:42;15.25;;;6.25;;
37997;SDS011;24079;51.824;4.682;2022-11-18T07:42:08;15.13;;;5.30;;
37997;SDS011;24079;51.824;4.682;2022-11-18T07:44:33;48.72;;;23.70;;
37997;SDS011;24079;51.824;4.682;2022-11-18T07:46:59;17.58;;;7.57;;
37997;SDS011;24079;51.824;4.682;2022-11-18T07:49:24;13.85;;;6.32;;
37997;SDS011;24079;51.824;4.682;2022-11-18T07:51:50;15.43;;;5.15;;
37997;SDS011;24079;51.824;4.682;2022-11-18T07:54:16;15.02;;;5.32;;
37997;SDS011;24079;51.824;4.682;2022-11-18T07:56:42;11.35;;;5.03;;
37997;SDS011;24079;51.824;4.682;2022-11-18T07:59:08;16.85;;;6.65;;
37997;SDS011;24079;51.824;4.682;2022-11-18T08:01:33;12.25;;;4.75;;
37997;SDS011;24079;51.824;4.682;2022-11-18T08:04:06;10.63;;;4.93;;
37997;SDS011;24079;51.824;4.682;2022-11-18T08:06:36;16.55;;;5.45;;
37997;SDS011;24079;51.824;4.682;2022-11-18T08:09:02;13.85;;;4.82;;
37997;SDS011;24079;51.824;4.682;2022-11-18T08:11:28;13.88;;;5.03;;
37997;SDS011;24079;51.824;4.682;2022-11-18T08:13:54;16.17;;;5.30;;
37997;SDS011;24079;51.824;4.682;2022-11-18T08:16:20;10.27;;;4.65;;
37997;SDS011;24079;51.824;4.682;2022-11-18T08:18:47;12.70;;;4.53;;
37997;SDS011;24079;51.824;4.682;2022-11-18T08:21:14;11.38;;;4.35;;
37997;SDS011;24079;51.824;4.682;2022-11-18T08:23:41;15.05;;;4.88;;
37997;SDS011;24079;51.824;4.682;2022-11-18T08:26:09;14.98;;;4.70;;
37997;SDS011;24079;51.824;4.682;2022-11-18T08:28:36;16.35;;;4.72;;
37997;SDS011;24079;51.824;4.682;2022-11-18T08:31:11;14.68;;;4.65;;
37997;SDS011;24079;51.824;4.682;2022-11-18T08:33:39;15.90;;;5.18;;
37997;SDS011;24079;51.824;4.682;2022-11-18T08:36:06;10.30;;;4.75;;
37997;SDS011;24079;51.824;4.682;2022-11-18T08:38:33;18.10;;;5.78;;
37997;SDS011;24079;51.824;4.682;2022-11-18T08:40:59;19.17;;;5.18;;
37997;SDS011;24079;51.824;4.682;2022-11-18T08:43:24;12.10;;;4.57;;
37997;SDS011;24079;51.824;4.682;2022-11-18T08:45:50;15.00;;;4.50;;
37997;SDS011;24079;51.824;4.682;2022-11-18T08:48:16;13.05;;;4.57;;
37997;SDS011;24079;51.824;4.682;2022-11-18T08:50:41;10.40;;;4.32;;
37997;SDS011;24079;51.824;4.682;2022-11-18T08:53:07;12.75;;;5.15;;
37997;SDS011;24079;51.824;4.682;2022-11-18T08:55:33;16.20;;;4.85;;
37997;SDS011;24079;51.824;4.682;2022-11-18T08:57:58;19.08;;;9.57;;
37997;SDS011;24079;51.824;4.682;2022-11-18T09:00:24;20.73;;;7.70;;
37997;SDS011;24079;51.824;4.682;2022-11-18T09:02:49;14.73;;;5.07;;
37997;SDS011;24079;51.824;4.682;2022-11-18T09:05:15;22.08;;;9.70;;
37997;SDS011;24079;51.824;4.682;2022-11-18T09:07:40;15.73;;;5.97;;
37997;SDS011;24079;51.824;4.682;2022-11-18T09:10:06;23.95;;;9.65;;
37997;SDS011;24079;51.824;4.682;2022-11-18T09:12:32;11.00;;;4.80;;
37997;SDS011;24079;51.824;4.682;2022-11-18T09:14:58;18.80;;;5.15;;
37997;SDS011;24079;51.824;4.682;2022-11-18T09:17:23;14.70;;;4.72;;
37997;SDS011;24079;51.824;4.682;2022-11-18T09:19:49;12.68;;;4.55;;
37997;SDS011;24079;51.824;4.682;2022-11-18T09:22:14;17.15;;;4.22;;
37997;SDS011;24079;51.824;4.682;2022-11-18T09:24:40;12.05;;;4.80;;
37997;SDS011;24079;51.824;4.682;2022-11-18T09:27:07;16.65;;;4.80;;
37997;SDS011;24079;51.824;4.682;2022-11-18T09:29:32;16.52;;;5.03;;
37997;SDS011;24079;51.824;4.682;2022-11-18T09:32:00;9.05;;;4.15;;
37997;SDS011;24079;51.824;4.682;2022-11-18T09:34:26;15.65;;;4.45;;
37997;SDS011;24079;51.824;4.682;2022-11-18T09:36:52;12.93;;;4.95;;
37997;SDS011;24079;51.824;4.682;2022-11-18T09:39:20;17.92;;;5.57;;
37997;SDS011;24079;51.824;4.682;2022-11-18T09:41:59;13.50;;;5.45;;
37997;SDS011;24079;51.824;4.682;2022-11-18T09:44:48;35.92;;;16.02;;
37997;SDS011;24079;51.824;4.682;2022-11-18T09:47:35;20.27;;;8.40;;
37997;SDS011;24079;51.824;4.682;2022-11-18T09:50:11;33.40;;;11.60;;
37997;SDS011;24079;51.824;4.682;2022-11-18T09:55:25;19.75;;;6.65;;
37997;SDS011;24079;51.824;4.682;2022-11-18T09:57:55;76.25;;;33.80;;
37997;SDS011;24079;51.824;4.682;2022-11-18T10:00:24;28.50;;;12.43;;
37997;SDS011;24079;51.824;4.682;2022-11-18T10:05:21;37.97;;;12.50;;
37997;SDS011;24079;51.824;4.682;2022-11-18T10:10:20;18.65;;;6.85;;
37997;SDS011;24079;51.824;4.682;2022-11-18T10:12:54;14.95;;;5.22;;
37997;SDS011;24079;51.824;4.682;2022-11-18T10:20:50;17.92;;;4.65;;
37997;SDS011;24079;51.824;4.682;2022-11-18T10:26:31;27.52;;;5.85;;
37997;SDS011;24079;51.824;4.682;2022-11-18T10:29:01;23.55;;;5.50;;
37997;SDS011;24079;51.824;4.682;2022-11-18T10:31:28;17.77;;;4.95;;
37997;SDS011;24079;51.824;4.682;2022-11-18T10:34:00;14.43;;;4.72;;
37997;SDS011;24079;51.824;4.682;2022-11-18T10:36:29;17.33;;;4.82;;
37997;SDS011;24079;51.824;4.682;2022-11-18T10:39:13;10.02;;;4.65;;
37997;SDS011;24079;51.824;4.682;2022-11-18T10:41:47;15.13;;;4.90;;
37997;SDS011;24079;51.824;4.682;2022-11-18T10:47:13;18.75;;;5.93;;
37997;SDS011;24079;51.824;4.682;2022-11-18T10:49:40;13.30;;;6.07;;
37997;SDS011;24079;51.824;4.682;2022-11-18T10:52:09;16.90;;;6.57;;
37997;SDS011;24079;51.824;4.682;2022-11-18T10:54:37;18.73;;;7.32;;
37997;SDS011;24079;51.824;4.682;2022-11-18T10:59:46;15.10;;;7.85;;
37997;SDS011;24079;51.824;4.682;2022-11-18T11:04:48;24.08;;;8.43;;
37997;SDS011;24079;51.824;4.682;2022-11-18T11:07:25;23.00;;;9.35;;
37997;SDS011;24079;51.824;4.682;2022-11-18T11:12:43;14.25;;;7.05;;
37997;SDS011;24079;51.824;4.682;2022-11-18T11:15:51;12.73;;;6.68;;
37997;SDS011;24079;51.824;4.682;2022-11-18T11:18:13;22.00;;;7.10;;
37997;SDS011;24079;51.824;4.682;2022-11-18T11:21:24;18.60;;;8.45;;
37997;SDS011;24079;51.824;4.682;2022-11-18T11:23:51;21.13;;;9.93;;
37997;SDS011;24079;51.824;4.682;2022-11-18T11:35:33;19.20;;;7.28;;
37997;SDS011;24079;51.824;4.682;2022-11-18T11:40:56;14.10;;;5.97;;
37997;SDS011;24079;51.824;4.682;2022-11-18T11:43:37;17.45;;;6.00;;
37997;SDS011;24079;51.824;4.682;2022-11-18T11:49:39;20.20;;;6.70;;
37997;SDS011;24079;51.824;4.682;2022-11-18T11:58:06;22.63;;;7.88;;
37997;SDS011;24079;51.824;4.682;2022-11-18T12:00:55;16.60;;;6.47;;
37997;SDS011;24079;51.824;4.682;2022-11-18T12:03:54;19.85;;;8.65;;
37997;SDS011;24079;51.824;4.682;2022-11-18T12:06:47;20.13;;;6.45;;
37997;SDS011;24079;51.824;4.682;2022-11-18T12:09:20;15.90;;;7.63;;
37997;SDS011;24079;51.824;4.682;2022-11-18T12:11:54;19.80;;;7.60;;
37997;SDS011;24079;51.824;4.682;2022-11-18T12:14:36;23.15;;;7.97;;
37997;SDS011;24079;51.824;4.682;2022-11-18T12:17:20;23.02;;;8.88;;
37997;SDS011;24079;51.824;4.682;2022-11-18T12:19:51;24.73;;;10.63;;
37997;SDS011;24079;51.824;4.682;2022-11-18T12:22:17;24.52;;;9.95;;
37997;SDS011;24079;51.824;4.682;2022-11-18T12:24:42;20.60;;;11.13;;
37997;SDS011;24079;51.824;4.682;2022-11-18T12:32:23;25.05;;;9.82;;
37997;SDS011;24079;51.824;4.682;2022-11-18T12:35:00;22.15;;;10.82;;
37997;SDS011;24079;51.824;4.682;2022-11-18T12:40:34;18.25;;;10.82;;
37997;SDS011;24079;51.824;4.682;2022-11-18T12:46:09;16.70;;;10.38;;
37997;SDS011;24079;51.824;4.682;2022-11-18T12:48:55;28.20;;;13.90;;
37997;SDS011;24079;51.824;4.682;2022-11-18T12:53:48;20.42;;;10.35;;
37997;SDS011;24079;51.824;4.682;2022-11-18T12:58:44;26.42;;;11.02;;
37997;SDS011;24079;51.824;4.682;2022-11-18T13:01:15;17.45;;;9.77;;
37997;SDS011;24079;51.824;4.682;2022-11-18T13:03:42;18.98;;;8.85;;
37997;SDS011;24079;51.824;4.682;2022-11-18T13:08:58;18.10;;;9.18;;
37997;SDS011;24079;51.824;4.682;2022-11-18T13:11:26;20.38;;;9.32;;
37997;SDS011;24079;51.824;4.682;2022-11-18T13:14:28;21.55;;;9.68;;
37997;SDS011;24079;51.824;4.682;2022-11-18T13:23:00;27.73;;;11.90;;
37997;SDS011;24079;51.824;4.682;2022-11-18T13:25:47;27.15;;;12.07;;
37997;SDS011;24079;51.824;4.682;2022-11-18T13:28:23;24.58;;;10.60;;
37997;SDS011;24079;51.824;4.682;2022-11-18T13:31:03;22.33;;;11.38;;
37997;SDS011;24079;51.824;4.682;2022-11-18T13:33:46;29.23;;;12.48;;
37997;SDS011;24079;51.824;4.682;2022-11-18T13:36:18;28.13;;;11.57;;
37997;SDS011;24079;51.824;4.682;2022-11-18T13:39:02;25.05;;;11.30;;
37997;SDS011;24079;51.824;4.682;2022-11-18T13:41:30;25.83;;;12.00;;
37997;SDS011;24079;51.824;4.682;2022-11-18T13:46:50;24.08;;;13.13;;
37997;SDS011;24079;51.824;4.682;2022-11-18T13:52:13;30.33;;;16.13;;
37997;SDS011;24079;51.824;4.682;2022-11-18T13:54:43;27.17;;;14.95;;
37997;SDS011;24079;51.824;4.682;2022-11-18T13:57:16;25.98;;;14.40;;
37997;SDS011;24079;51.824;4.682;2022-11-18T13:59:44;24.88;;;14.07;;
37997;SDS011;24079;51.824;4.682;2022-11-18T14:02:12;31.17;;;15.65;;
37997;SDS011;24079;51.824;4.682;2022-11-18T14:04:45;25.73;;;15.20;;
37997;SDS011;24079;51.824;4.682;2022-11-18T14:07:27;21.95;;;13.70;;
37997;SDS011;24079;51.824;4.682;2022-11-18T14:10:02;32.45;;;18.70;;
37997;SDS011;24079;51.824;4.682;2022-11-18T14:12:32;28.10;;;15.57;;
37997;SDS011;24079;51.824;4.682;2022-11-18T14:15:19;27.65;;;15.90;;
37997;SDS011;24079;51.824;4.682;2022-11-18T14:18:13;34.90;;;18.60;;
37997;SDS011;24079;51.824;4.682;2022-11-18T14:20:48;27.77;;;14.30;;
37997;SDS011;24079;51.824;4.682;2022-11-18T14:25:42;26.27;;;13.65;;
37997;SDS011;24079;51.824;4.682;2022-11-18T14:28:11;41.95;;;22.70;;
37997;SDS011;24079;51.824;4.682;2022-11-18T14:30:37;30.92;;;15.85;;
37997;SDS011;24079;51.824;4.682;2022-11-18T14:35:43;41.47;;;23.58;;
37997;SDS011;24079;51.824;4.682;2022-11-18T14:41:06;25.45;;;14.55;;
37997;SDS011;24079;51.824;4.682;2022-11-18T14:43:33;31.15;;;17.83;;
37997;SDS011;24079;51.824;4.682;2022-11-18T14:46:03;24.80;;;15.93;;
37997;SDS011;24079;51.824;4.682;2022-11-18T14:48:31;28.30;;;13.75;;
37997;SDS011;24079;51.824;4.682;2022-11-18T14:50:57;30.75;;;14.75;;
37997;SDS011;24079;51.824;4.682;2022-11-18T14:53:23;23.10;;;12.95;;
37997;SDS011;24079;51.824;4.682;2022-11-18T14:55:50;25.60;;;13.32;;
37997;SDS011;24079;51.824;4.682;2022-11-18T14:58:17;26.70;;;14.70;;
37997;SDS011;24079;51.824;4.682;2022-11-18T15:00:44;22.52;;;13.63;;
37997;SDS011;24079;51.824;4.682;2022-11-18T15:03:12;22.80;;;13.07;;
37997;SDS011;24079;51.824;4.682;2022-11-18T15:05:37;22.35;;;12.65;;
37997;SDS011;24079;51.824;4.682;2022-11-18T15:08:03;15.13;;;11.38;;
37997;SDS011;24079;51.824;4.682;2022-11-18T15:10:29;22.30;;;12.60;;
37997;SDS011;24079;51.824;4.682;2022-11-18T15:12:55;18.05;;;11.35;;
37997;SDS011;24079;51.824;4.682;2022-11-18T15:15:20;20.65;;;10.88;;
37997;SDS011;24079;51.824;4.682;2022-11-18T15:17:46;18.05;;;11.65;;
37997;SDS011;24079;51.824;4.682;2022-11-18T15:20:12;24.70;;;14.02;;
37997;SDS011;24079;51.824;4.682;2022-11-18T15:22:41;19.30;;;12.23;;
37997;SDS011;24079;51.824;4.682;2022-11-18T15:25:07;18.08;;;12.00;;
37997;SDS011;24079;51.824;4.682;2022-11-18T15:27:33;24.00;;;15.10;;
37997;SDS011;24079;51.824;4.682;2022-11-18T15:29:59;22.88;;;12.95;;
37997;SDS011;24079;51.824;4.682;2022-11-18T15:32:25;21.10;;;13.57;;
37997;SDS011;24079;51.824;4.682;2022-11-18T15:34:50;29.00;;;13.45;;
37997;SDS011;24079;51.824;4.682;2022-11-18T15:37:16;24.58;;;12.90;;
37997;SDS011;24079;51.824;4.682;2022-11-18T15:39:41;21.40;;;13.30;;
37997;SDS011;24079;51.824;4.682;2022-11-18T15:42:08;20.23;;;13.48;;
37997;SDS011;24079;51.824;4.682;2022-11-18T15:44:34;29.23;;;15.93;;
37997;SDS011;24079;51.824;4.682;2022-11-18T15:46:59;23.15;;;15.35;;
37997;SDS011;24079;51.824;4.682;2022-11-18T15:49:25;20.60;;;14.52;;
37997;SDS011;24079;51.824;4.682;2022-11-18T15:51:51;22.80;;;15.07;;
37997;SDS011;24079;51.824;4.682;2022-11-18T15:54:17;27.45;;;15.55;;
37997;SDS011;24079;51.824;4.682;2022-11-18T15:56:43;28.23;;;16.15;;
37997;SDS011;24079;51.824;4.682;2022-11-18T15:59:12;18.85;;;15.10;;
37997;SDS011;24079;51.824;4.682;2022-11-18T16:01:40;30.40;;;16.13;;
37997;SDS011;24079;51.824;4.682;2022-11-18T16:04:08;22.75;;;14.93;;
37997;SDS011;24079;51.824;4.682;2022-11-18T16:06:35;22.92;;;14.95;;
37997;SDS011;24079;51.824;4.682;2022-11-18T16:09:02;24.38;;;15.57;;
37997;SDS011;24079;51.824;4.682;2022-11-18T16:11:28;23.40;;;13.98;;
37997;SDS011;24079;51.824;4.682;2022-11-18T16:14:13;24.02;;;15.45;;
37997;SDS011;24079;51.824;4.682;2022-11-18T16:16:41;24.20;;;14.93;;
37997;SDS011;24079;51.824;4.682;2022-11-18T16:19:09;24.33;;;15.68;;
37997;SDS011;24079;51.824;4.682;2022-11-18T16:21:37;26.35;;;15.40;;
37997;SDS011;24079;51.824;4.682;2022-11-18T16:24:05;25.75;;;16.13;;
37997;SDS011;24079;51.824;4.682;2022-11-18T16:26:33;26.45;;;15.43;;
37997;SDS011;24079;51.824;4.682;2022-11-18T16:29:00;23.63;;;14.70;;
37997;SDS011;24079;51.824;4.682;2022-11-18T16:31:26;22.45;;;15.13;;
37997;SDS011;24079;51.824;4.682;2022-11-18T16:34:08;56.80;;;21.88;;
37997;SDS011;24079;51.824;4.682;2022-11-18T16:36:51;23.95;;;15.93;;
37997;SDS011;24079;51.824;4.682;2022-11-18T16:39:21;27.38;;;15.38;;
37997;SDS011;24079;51.824;4.682;2022-11-18T16:41:49;28.10;;;14.93;;
37997;SDS011;24079;51.824;4.682;2022-11-18T16:44:16;28.10;;;15.60;;
37997;SDS011;24079;51.824;4.682;2022-11-18T16:46:49;24.50;;;14.60;;
37997;SDS011;24079;51.824;4.682;2022-11-18T16:49:17;27.08;;;15.40;;
37997;SDS011;24079;51.824;4.682;2022-11-18T16:51:44;29.92;;;14.27;;
37997;SDS011;24079;51.824;4.682;2022-11-18T16:56:47;22.10;;;13.80;;